Time;durP1;ratioP1;P1;durP2;ratioP2;P2;SDS_P1;SDS_P2;PMS_P1;PMS_P2;Temp;Humidity;BMP_temperature;BMP_pressure;BME280_temperature;BME280_humidity;BME280_pressure;Samples;Min_cycle;Max_cycle;Signal;HPM_P1;HPM_P2
2023/04/16 00:03:16;;;;;;;15.40;9.70;;;;;;;4.66;86.66;100335.16;105283;1257;73087;-64
2023/04/16 00:07:03;;;;;;;17.60;9.50;;;;;;;4.63;86.90;100341.09;105446;1253;69027;-64
2023/04/16 00:10:52;;;;;;;16.70;9.80;;;;;;;4.61;86.85;100347.52;105175;1257;69171;-66
2023/04/16 00:14:30;;;;;;;19.00;10.40;;;;;;;4.61;87.27;100346.48;105205;1257;74233;-64
2023/04/16 00:18:11;;;;;;;;;;;;;;;;;;;;;
2023/04/16 00:22:01;;;;;;;16.70;10.40;;;;;;;4.72;88.16;100356.20;105234;1253;76116;-65
2023/04/16 00:25:51;;;;;;;16.90;10.60;;;;;;;4.72;88.08;100354.30;105151;1253;69160;-64
2023/04/16 00:36:56;;;;;;;15.20;9.60;;;;;;;4.65;87.70;100361.31;105180;1257;83530;-65
2023/04/16 00:40:43;;;;;;;;;;;;;;;;;;;;;
2023/04/16 00:44:27;;;;;;;;;;;;;;;;;;;;;
2023/04/16 00:48:17;;;;;;;16.40;10.20;;;;;;;4.47;87.68;100363.79;105264;1253;69173;-63
2023/04/16 00:51:47;;;;;;;19.20;11.60;;;;;;;4.49;88.39;100365.50;105247;1253;73227;-67
2023/04/16 00:55:36;;;;;;;21.20;12.90;;;;;;;4.56;89.23;100368.36;105400;1257;83145;-66
2023/04/16 00:59:25;;;;;;;18.40;11.10;;;;;;;4.63;89.57;100368.26;105277;1253;74941;-66
2023/04/16 01:03:06;;;;;;;;;;;;;;;;;;;;;
2023/04/16 01:06:57;;;;;;;20.90;12.20;;;;;;;4.78;90.48;100372.40;105179;1257;69210;-63
2023/04/16 01:10:46;;;;;;;20.30;11.90;;;;;;;4.85;90.78;100369.86;105286;1253;74143;-64
2023/04/16 01:14:50;;;;;;;22.70;13.50;;;;;;;4.86;90.15;100373.14;105201;1253;82525;-65
2023/04/16 01:18:15;;;;;;;21.80;12.40;;;;;;;4.87;90.27;100374.33;105571;1257;73677;-65
2023/04/16 01:22:04;;;;;;;21.10;12.10;;;;;;;4.86;89.97;100378.85;105239;1256;69155;-66
2023/04/16 01:29:35;;;;;;;22.30;12.40;;;;;;;4.96;90.94;100380.27;105281;1253;74220;-66
2023/04/16 01:33:21;;;;;;;;;;;;;;;;;;;;;
2023/04/16 01:36:34;;;;;;;;;;;;;;;5.11;91.66;100382.82;105479;1257;73680;-65
2023/04/16 01:40:24;;;;;;;22.70;14.00;;;;;;;5.18;91.82;100390.34;105391;1254;69158;-66
2023/04/16 01:44:13;;;;;;;20.10;12.20;;;;;;;5.26;92.08;100388.66;105202;1253;69148;-66
2023/04/16 01:47:42;;;;;;;;;;;;;;;;;;;;;
2023/04/16 01:51:22;;;;;;;21.20;11.80;;;;;;;5.33;92.16;100384.90;105185;1253;72779;-64
2023/04/16 01:55:10;;;;;;;;;;;;;;;;;;;;;
2023/04/16 02:02:47;;;;;;;16.60;11.60;;;;;;;5.36;92.17;100379.48;104866;1263;74500;-67
2023/04/16 02:06:19;;;;;;;13.80;9.10;;;;;;;5.36;92.17;100385.37;104820;1263;84173;-66
2023/04/16 02:09:40;;;;;;;13.10;9.10;;;;;;;5.37;92.30;100392.98;104807;1260;72632;-68
2023/04/16 02:13:27;;;;;;;;;;;;;;;;;;;;;
2023/04/16 02:17:09;;;;;;;;;;;;;;;;;;;;;
2023/04/16 02:20:53;;;;;;;16.30;10.80;;;;;;;5.36;92.42;100394.56;104564;1268;73466;-65
2023/04/16 02:24:42;;;;;;;16.10;10.70;;;;;;;5.34;92.59;100398.40;104519;1266;82569;-66
2023/04/16 02:28:07;;;;;;;;;;;;;;;;;;;;;
2023/04/16 02:31:30;;;;;;;;;;;;;;;;;;;;;
2023/04/16 02:35:08;;;;;;;18.10;10.90;;;;;;;5.39;93.13;100404.41;104515;1270;69596;-66
2023/04/16 02:38:41;;;;;;;;;;;;;;;;;;;;;
2023/04/16 02:42:30;;;;;;;17.60;11.00;;;;;;;5.35;92.61;100402.55;104924;1263;83354;-64
2023/04/16 02:46:12;;;;;;;18.80;11.20;;;;;;;5.34;92.86;100407.92;104936;1259;72850;-65
2023/04/16 02:49:24;;;;;;;18.20;12.70;;;;;;;5.32;92.75;100408.13;105211;1256;69110;-64
2023/04/16 02:53:10;;;;;;;;;;;;;;;;;;;;;
2023/04/16 02:56:52;;;;;;;15.70;11.10;;;;;;;5.38;93.50;100411.34;105047;1254;73776;-65
2023/04/16 03:00:27;;;;;;;15.60;10.60;;;;;;;5.39;93.49;100416.88;105524;1257;82395;-69
2023/04/16 03:04:16;;;;;;;18.80;10.80;;;;;;;5.41;93.58;100417.72;105243;1254;73800;-68
2023/04/16 03:07:57;;;;;;;;;;;;;;;;;;;;;
2023/04/16 03:11:39;;;;;;;;;;;;;;;;;;;;;
2023/04/16 03:15:18;;;;;;;13.40;9.70;;;;;;;5.46;93.81;100412.77;105148;1256;72896;-68
2023/04/16 03:19:08;;;;;;;11.20;8.60;;;;;;;5.48;93.97;100419.00;105203;1254;83431;-67
2023/04/16 03:22:58;;;;;;;13.70;9.50;;;;;;;5.46;93.92;100422.48;105244;1257;73870;-68
2023/04/16 03:26:39;;;;;;;;;;;;;;;;;;;;;
2023/04/16 03:30:29;;;;;;;13.10;9.00;;;;;;;5.50;94.16;100425.54;105279;1256;69268;-72
2023/04/16 03:34:18;;;;;;;12.20;8.40;;;;;;;5.48;93.99;100426.09;105211;1257;74720;-71
2023/04/16 03:37:57;;;;;;;;;;;;;;;;;;;;;
2023/04/16 03:41:48;;;;;;;12.00;8.20;;;;;;;5.46;94.24;100431.66;105335;1257;71777;-69
2023/04/16 03:45:29;;;;;;;11.40;8.00;;;;;;;5.42;93.98;100432.08;105330;1254;69191;-70
2023/04/16 03:49:18;;;;;;;10.60;7.60;;;;;;;5.38;94.00;100438.55;105321;1256;69291;-70
2023/04/16 03:52:50;;;;;;;;;;;;;;;;;;;;;
2023/04/16 03:56:41;;;;;;;11.20;7.80;;;;;;;5.37;94.41;100451.73;105308;1254;82417;-72
2023/04/16 04:00:30;;;;;;;12.10;8.50;;;;;;;5.41;94.59;100457.21;105322;1256;74526;-72
2023/04/16 04:04:10;;;;;;;;;;;;;;;;;;;;;
2023/04/16 04:07:58;;;;;;;;;;;;;;;;;;;;;
2023/04/16 04:11:36;;;;;;;12.90;8.90;;;;;;;5.49;94.65;100487.61;105471;1254;72512;-71
2023/04/16 04:18:56;;;;;;;;;;;;;;;;;;;;;
2023/04/16 04:22:23;;;;;;;13.50;9.40;;;;;;;5.58;94.83;100503.59;104609;1260;69350;-68
2023/04/16 04:26:06;;;;;;;;;;;;;;;;;;;;;
2023/04/16 04:29:44;;;;;;;;;;;;;;;;;;;;;
2023/04/16 04:37:05;;;;;;;;;;;;;;;;;;;;;
2023/04/16 04:40:37;;;;;;;;;;;;;;;5.77;94.60;100519.09;104703;1262;69198;-65
2023/04/16 04:44:10;;;;;;;;;;;;;;;;;;;;;
2023/04/16 04:47:33;;;;;;;15.60;11.20;;;;;;;5.69;94.35;100526.48;104786;1264;74363;-68
2023/04/16 04:51:06;;;;;;;;;;;;;;;;;;;;;
2023/04/16 04:54:40;;;;;;;13.30;10.30;;;;;;;5.66;94.21;100528.09;104710;1260;72770;-67
2023/04/16 04:58:21;;;;;;;16.60;10.40;;;;;;;5.68;94.34;100531.70;105335;1259;69191;-71
2023/04/16 05:02:10;;;;;;;13.30;10.70;;;;;;;5.74;94.51;100536.29;105057;1255;69103;-70
2023/04/16 05:05:12;;;;;;;;;;;;;;;;;;;;;
2023/04/16 05:08:24;;;;;;;17.60;10.70;;;;;;;5.84;94.60;100540.64;105184;1258;83448;-63
2023/04/16 05:11:31;;;;;;;;;;;;;;;;;;;;;
2023/04/16 05:14:35;;;;;;;15.00;10.00;;;;;;;5.91;94.67;100547.13;105460;1256;69205;-64
2023/04/16 05:17:32;;;;;;;;;;;;;;;;;;;;;
2023/04/16 05:20:37;;;;;;;;;;;;;;;;;;;;;
2023/04/16 05:23:31;;;;;;;19.70;11.90;;;;;;;6.03;94.57;100562.07;105265;1256;83567;-61
2023/04/16 05:26:21;;;;;;;22.10;12.80;;;;;;;6.04;94.91;100564.13;105165;1256;73859;-62
2023/04/16 05:29:27;;;;;;;21.00;12.70;;;;;;;6.06;94.57;100566.88;105172;1258;69201;-63
2023/04/16 05:32:46;;;;;;;21.80;12.20;;;;;;;6.06;94.73;100571.20;105137;1256;69146;-63
2023/04/16 05:35:56;;;;;;;20.40;12.40;;;;;;;6.08;94.92;100571.52;105177;1259;73152;-63
2023/04/16 05:38:55;;;;;;;15.30;10.70;;;;;;;6.11;94.86;100573.56;105188;1254;82460;-63
2023/04/16 05:41:46;;;;;;;15.70;10.30;;;;;;;6.09;94.74;100575.50;105478;1256;73789;-63
2023/04/16 05:44:43;;;;;;;15.10;9.80;;;;;;;6.08;94.94;100577.09;105472;1259;69170;-63
2023/04/16 05:47:36;;;;;;;15.10;10.90;;;;;;;6.14;95.39;100576.29;105452;1258;69186;-64
2023/04/16 05:50:31;;;;;;;16.30;10.50;;;;;;;6.20;95.11;100581.41;105474;1254;74093;-63
2023/04/16 05:53:36;;;;;;;;;;;;;;;;;;;;;
2023/04/16 05:56:43;;;;;;;15.30;10.10;;;;;;;6.25;95.06;100583.58;105833;1254;73839;-64
2023/04/16 05:59:23;;;;;;;14.50;9.80;;;;;;;6.31;95.26;100581.58;105472;1254;69231;-65
2023/04/16 06:02:10;;;;;;;15.10;10.60;;;;;;;6.38;95.42;100581.27;105448;1253;69289;-64
2023/04/16 06:05:01;;;;;;;13.10;9.90;;;;;;;6.46;95.63;100584.42;105865;1254;71827;-64
2023/04/16 06:08:05;;;;;;;18.40;10.90;;;;;;;6.54;95.50;100588.81;105544;1254;82410;-63
2023/04/16 06:11:06;;;;;;;;;;;;;;;;;;;;;
2023/04/16 06:13:51;;;;;;;48.50;25.30;;;;;;;6.68;95.60;100592.36;105454;1254;69183;-63
2023/04/16 06:16:47;;;;;;;23.70;15.30;;;;;;;6.74;95.21;100595.92;105540;1259;69205;-62
2023/04/16 06:19:45;;;;;;;25.00;15.40;;;;;;;6.79;95.18;100598.27;105455;1253;74910;-62
2023/04/16 06:22:25;;;;;;;19.40;13.20;;;;;;;6.87;95.46;100605.24;105657;1258;84288;-62
2023/04/16 06:25:40;;;;;;;19.80;11.60;;;;;;;6.93;95.03;100611.19;105324;1253;72909;-63
2023/04/16 06:28:29;;;;;;;31.90;19.50;;;;;;;6.97;94.97;100614.96;105596;1259;69124;-63
2023/04/16 06:31:23;;;;;;;34.70;23.90;;;;;;;7.01;94.88;100617.48;105462;1257;69100;-63
2023/04/16 06:34:31;;;;;;;21.20;14.00;;;;;;;7.04;94.94;100617.08;105404;1254;73493;-63
2023/04/16 06:37:18;;;;;;;22.20;13.00;;;;;;;7.08;95.29;100624.31;105464;1257;84051;-64
2023/04/16 06:40:05;;;;;;;;;;;;;;;;;;;;;
2023/04/16 06:42:42;;;;;;;18.90;12.10;;;;;;;7.13;95.17;100633.95;105362;1259;69150;-64
2023/04/16 06:45:48;;;;;;;16.20;11.70;;;;;;;7.16;94.89;100633.88;105556;1254;69316;-65
2023/04/16 06:48:46;;;;;;;;;;;;;;;7.21;94.96;100639.35;105496;1259;75069;-66
2023/04/16 06:51:33;;;;;;;20.10;12.80;;;;;;;7.27;95.00;100640.09;106051;1254;83210;-65
2023/04/16 06:54:20;;;;;;;20.10;12.10;;;;;;;7.37;95.14;100636.77;105477;1253;73676;-66
2023/04/16 06:57:19;;;;;;;17.50;12.40;;;;;;;7.48;95.06;100634.81;105478;1257;69129;-64
2023/04/16 07:00:11;;;;;;;22.20;12.80;;;;;;;7.52;94.72;100632.13;105462;1254;69324;-70
2023/04/16 07:02:59;;;;;;;20.10;13.30;;;;;;;7.54;94.87;100630.52;105834;1253;74870;-69
2023/04/16 07:05:42;;;;;;;21.70;14.20;;;;;;;7.59;94.83;100634.40;105624;1259;83727;-69
2023/04/16 07:08:27;;;;;;;23.40;13.90;;;;;;;7.64;94.74;100635.00;105494;1253;71392;-70
2023/04/16 07:11:24;;;;;;;22.10;13.60;;;;;;;7.71;94.77;100638.66;105487;1259;69169;-70
2023/04/16 07:14:16;;;;;;;21.60;12.00;;;;;;;7.84;94.82;100639.95;105475;1254;69409;-70
2023/04/16 07:17:07;;;;;;;22.60;13.50;;;;;;;7.94;94.59;100639.58;105457;1253;73783;-70
2023/04/16 07:20:08;;;;;;;20.80;13.50;;;;;;;8.05;94.29;100636.71;105495;1254;82306;-70
2023/04/16 07:22:43;;;;;;;22.20;13.70;;;;;;;8.18;94.81;100634.67;105449;1259;73879;-70
2023/04/16 07:25:27;;;;;;;20.50;13.30;;;;;;;8.32;95.02;100635.91;105609;1259;69187;-69
2023/04/16 07:28:18;;;;;;;20.90;13.70;;;;;;;8.42;94.87;100639.00;105448;1259;69185;-68
2023/04/16 07:31:04;;;;;;;22.90;14.60;;;;;;;8.52;94.46;100638.25;105478;1254;75382;-70
2023/04/16 07:33:48;;;;;;;22.60;15.40;;;;;;;8.63;94.73;100640.92;105483;1257;83322;-75
2023/04/16 07:36:39;;;;;;;22.80;15.40;;;;;;;8.76;94.56;100639.02;105771;1258;72345;-75
2023/04/16 07:39:18;;;;;;;22.60;15.20;;;;;;;8.87;94.54;100639.23;105415;1257;69090;-66
2023/04/16 07:42:03;;;;;;;23.00;14.20;;;;;;;8.98;94.45;100638.27;105452;1258;69117;-65
2023/04/16 07:44:39;;;;;;;23.40;14.90;;;;;;;9.13;94.24;100640.81;105413;1256;74903;-66
2023/04/16 07:47:25;;;;;;;23.50;13.50;;;;;;;9.15;93.76;100642.00;105430;1257;82928;-66
2023/04/16 07:50:09;;;;;;;21.80;14.90;;;;;;;9.20;94.18;100641.33;105468;1254;73870;-65
2023/04/16 07:52:52;;;;;;;22.20;13.80;;;;;;;9.30;94.11;100645.25;105437;1258;69301;-65
2023/04/16 07:55:29;;;;;;;20.40;13.50;;;;;;;9.37;93.86;100643.50;105442;1258;69175;-65
2023/04/16 07:58:13;;;;;;;21.60;14.20;;;;;;;9.49;94.17;100644.37;105780;1258;75677;-65
2023/04/16 08:00:54;;;;;;;21.10;15.60;;;;;;;9.72;94.65;100648.05;105465;1255;83488;-65
2023/04/16 08:03:28;;;;;;;25.60;15.90;;;;;;;9.96;94.67;100651.70;105538;1258;73803;-64
2023/04/16 08:06:30;;;;;;;25.10;15.60;;;;;;;10.11;94.16;100648.83;105452;1258;69145;-64
2023/04/16 08:09:06;;;;;;;26.00;17.20;;;;;;;10.13;93.33;100653.45;105454;1258;69186;-63
2023/04/16 08:11:42;;;;;;;24.40;16.70;;;;;;;10.18;93.14;100652.95;105438;1258;74805;-64
2023/04/16 08:14:16;;;;;;;27.30;17.80;;;;;;;10.23;92.98;100656.63;105454;1257;83394;-64
2023/04/16 08:17:04;;;;;;;22.40;15.20;;;;;;;10.24;92.17;100663.05;105444;1259;73678;-65
2023/04/16 08:19:52;;;;;;;;;;;;;;;;;;;;;
2023/04/16 08:22:41;;;;;;;24.40;16.50;;;;;;;10.26;92.17;100670.15;105711;1257;69328;-64
2023/04/16 08:25:35;;;;;;;18.90;14.30;;;;;;;10.39;92.59;100667.34;105421;1258;75907;-63
2023/04/16 08:28:15;;;;;;;21.60;16.10;;;;;;;10.54;91.88;100671.06;105304;1258;83371;-64
2023/04/16 08:30:56;;;;;;;;;;;;;;;10.59;91.52;100674.20;105368;1256;72737;-64
2023/04/16 08:33:35;;;;;;;21.80;15.20;;;;;;;10.77;91.55;100675.89;105427;1258;69191;-63
2023/04/16 08:36:23;;;;;;;22.80;16.30;;;;;;;10.92;91.71;100681.86;105391;1256;69123;-67
2023/04/16 08:39:00;;;;;;;22.80;17.00;;;;;;;11.08;91.98;100683.77;105392;1256;74840;-62
2023/04/16 08:41:37;;;;;;;22.40;16.90;;;;;;;11.21;92.04;100687.65;105405;1256;83948;-63
2023/04/16 08:44:16;;;;;;;19.20;14.60;;;;;;;11.41;91.83;100692.54;105396;1254;73027;-64
2023/04/16 08:47:00;;;;;;;18.90;13.90;;;;;;;11.53;90.65;100697.36;105371;1258;69170;-64
2023/04/16 08:49:37;;;;;;;17.20;12.90;;;;;;;11.54;89.73;100695.77;105393;1260;69104;-64
2023/04/16 08:52:30;;;;;;;21.20;14.60;;;;;;;11.52;89.31;100703.17;105430;1255;74679;-66
2023/04/16 08:55:15;;;;;;;19.70;14.80;;;;;;;11.51;89.03;100703.74;105343;1258;83693;-63
2023/04/16 08:57:52;;;;;;;22.30;15.50;;;;;;;11.53;88.86;100707.20;105366;1258;74185;-60
2023/04/16 09:00:31;;;;;;;22.60;16.60;;;;;;;11.48;88.40;100707.89;105407;1256;69074;-68
2023/04/16 09:03:12;;;;;;;19.60;15.70;;;;;;;11.48;88.44;100709.80;105373;1258;69242;-64
2023/04/16 09:05:58;;;;;;;21.50;16.40;;;;;;;11.58;88.71;100710.69;105407;1258;73806;-66
2023/04/16 09:08:36;;;;;;;18.40;14.30;;;;;;;11.62;88.26;100717.00;105246;1258;83526;-63
2023/04/16 09:11:33;;;;;;;18.80;13.50;;;;;;;11.71;87.94;100718.42;105339;1258;72010;-64
2023/04/16 09:14:43;;;;;;;;;;;;;;;;;;;;;
2023/04/16 09:17:19;;;;;;;19.80;13.70;;;;;;;11.77;87.39;100726.95;105356;1254;69486;-67
2023/04/16 09:19:56;;;;;;;20.60;15.20;;;;;;;11.83;87.32;100727.61;105446;1257;73793;-63
2023/04/16 09:22:42;;;;;;;;;;;;;;;;;;;;;
2023/04/16 09:25:24;;;;;;;20.30;15.90;;;;;;;11.82;86.67;100730.09;105374;1258;73127;-63
2023/04/16 09:28:12;;;;;;;22.00;15.80;;;;;;;11.85;86.42;100733.32;105419;1258;69232;-63
2023/04/16 09:31:26;;;;;;;19.10;15.50;;;;;;;11.86;86.12;100735.23;105672;1258;69119;-63
2023/04/16 09:34:10;;;;;;;21.60;15.90;;;;;;;11.86;85.75;100734.88;105353;1260;74912;-63
2023/04/16 09:36:46;;;;;;;20.40;14.30;;;;;;;11.97;86.21;100736.77;105364;1258;83249;-63
2023/04/16 09:39:26;;;;;;;19.90;14.50;;;;;;;12.09;85.76;100735.63;105376;1258;73735;-64
2023/04/16 09:42:03;;;;;;;18.90;14.80;;;;;;;12.24;85.69;100733.80;105540;1258;69186;-65
2023/04/16 09:44:40;;;;;;;18.80;13.80;;;;;;;12.47;85.67;100735.89;105587;1258;69179;-63
2023/04/16 09:47:14;;;;;;;17.80;13.90;;;;;;;12.70;85.78;100735.14;105417;1258;74918;-63
2023/04/16 09:49:43;;;;;;;18.50;14.50;;;;;;;12.93;85.78;100738.40;105753;1258;85114;-64
2023/04/16 09:52:20;;;;;;;19.00;14.60;;;;;;;13.07;84.83;100735.54;105439;1255;73849;-63
2023/04/16 09:54:52;;;;;;;17.70;13.90;;;;;;;13.20;84.80;100740.23;105644;1256;69089;-64
2023/04/16 09:57:26;;;;;;;16.90;14.10;;;;;;;13.36;84.56;100741.20;105600;1258;69205;-64
2023/04/16 10:00:09;;;;;;;17.30;13.20;;;;;;;13.53;84.26;100739.92;105598;1258;74876;-64
2023/04/16 10:02:47;;;;;;;17.50;14.20;;;;;;;13.79;84.14;100740.52;105480;1260;83184;-65
2023/04/16 10:05:19;;;;;;;16.20;13.40;;;;;;;13.99;83.62;100735.95;105327;1259;74000;-65
2023/04/16 10:07:48;;;;;;;15.90;12.90;;;;;;;14.24;83.54;100737.73;105423;1259;69198;-65
2023/04/16 10:10:17;;;;;;;14.20;11.70;;;;;;;14.55;83.64;100739.64;105482;1261;69090;-65
2023/04/16 10:12:46;;;;;;;14.80;12.70;;;;;;;14.89;83.28;100742.96;105435;1257;74431;-65
2023/04/16 10:15:15;;;;;;;15.80;13.10;;;;;;;15.18;82.43;100741.64;105392;1259;83841;-66
2023/04/16 10:17:44;;;;;;;14.80;13.00;;;;;;;15.35;81.46;100739.73;105394;1258;72215;-65
2023/04/16 10:20:15;;;;;;;13.20;11.60;;;;;;;15.50;80.60;100738.42;105288;1268;69232;-65
2023/04/16 10:22:45;;;;;;;16.00;12.70;;;;;;;15.79;80.68;100732.86;105149;1258;69200;-65
2023/04/16 10:25:13;;;;;;;14.70;13.10;;;;;;;16.10;80.11;100729.81;105355;1259;73978;-65
2023/04/16 10:27:43;;;;;;;12.40;11.00;;;;;;;16.34;79.44;100735.36;105308;1259;83278;-65
2023/04/16 10:30:12;;;;;;;13.80;11.30;;;;;;;16.55;77.74;100736.63;105485;1259;73766;-69
2023/04/16 10:32:41;;;;;;;12.40;11.00;;;;;;;16.66;77.16;100732.67;105575;1259;69124;-67
2023/04/16 10:35:15;;;;;;;11.70;10.30;;;;;;;16.82;76.60;100733.71;105537;1257;69154;-66
2023/04/16 10:37:44;;;;;;;10.90;9.80;;;;;;;16.92;75.41;100730.67;105325;1258;74514;-67
2023/04/16 10:40:23;;;;;;;12.60;10.10;;;;;;;17.18;75.98;100729.34;105250;1263;82644;-62
2023/04/16 10:42:58;;;;;;;12.60;11.20;;;;;;;17.52;75.87;100725.88;105528;1268;72224;-68
2023/04/16 10:45:37;;;;;;;12.80;10.30;;;;;;;17.84;74.71;100724.45;105465;1261;69222;-69
2023/04/16 10:48:08;;;;;;;10.70;9.30;;;;;;;18.13;74.27;100723.01;105908;1258;69206;-68
2023/04/16 10:50:38;;;;;;;10.20;9.20;;;;;;;18.37;73.61;100724.48;105584;1259;74786;-68
2023/04/16 10:53:22;;;;;;;10.50;8.70;;;;;;;18.60;72.65;100727.22;105594;1259;83416;-65
2023/04/16 10:56:06;;;;;;;10.00;8.50;;;;;;;18.41;70.58;100726.35;105573;1267;73745;-65
2023/04/16 10:58:35;;;;;;;10.30;9.20;;;;;;;18.42;70.26;100726.96;105430;1258;69174;-65
2023/04/16 11:01:12;;;;;;;9.50;8.20;;;;;;;18.53;69.76;100728.21;105530;1259;69234;-67
2023/04/16 11:03:46;;;;;;;9.10;8.00;;;;;;;18.40;69.03;100723.40;105414;1258;73954;-63
2023/04/16 11:06:17;;;;;;;8.30;7.40;;;;;;;18.10;68.36;100726.05;105413;1258;83802;-67
2023/04/16 11:08:46;;;;;;;7.50;6.30;;;;;;;18.24;68.39;100723.58;105430;1257;73021;-67
2023/04/16 11:11:38;;;;;;;6.80;5.60;;;;;;;18.63;68.34;100723.30;105433;1258;69094;-66
2023/04/16 11:14:07;;;;;;;4.20;3.80;;;;;;;19.05;67.75;100721.41;105438;1257;69089;-64
2023/04/16 11:16:39;;;;;;;6.10;3.80;;;;;;;19.38;66.54;100718.30;105228;1266;74941;-63
2023/04/16 11:19:15;;;;;;;4.90;4.10;;;;;;;19.63;65.62;100715.36;105185;1260;83672;-65
2023/04/16 11:21:44;;;;;;;6.10;4.10;;;;;;;19.81;65.06;100715.70;105552;1254;71840;-65
2023/04/16 11:24:12;;;;;;;5.00;4.10;;;;;;;20.02;64.07;100719.86;105174;1255;69462;-65
2023/04/16 11:26:40;;;;;;;4.70;3.80;;;;;;;20.06;63.35;100718.88;105461;1258;69196;-64
2023/04/16 11:29:15;;;;;;;5.30;4.20;;;;;;;20.34;63.45;100716.31;105540;1259;73812;-63
2023/04/16 11:31:50;;;;;;;4.70;4.20;;;;;;;20.29;62.29;100718.42;105688;1254;83832;-63
2023/04/16 11:34:19;;;;;;;4.90;4.40;;;;;;;19.95;61.75;100719.10;105807;1256;72412;-63
2023/04/16 11:36:49;;;;;;;5.50;4.70;;;;;;;19.61;61.21;100722.38;105534;1259;69099;-62
2023/04/16 11:39:18;;;;;;;5.20;4.40;;;;;;;19.50;60.62;100720.49;105558;1259;69161;-63
2023/04/16 11:41:48;;;;;;;4.70;4.30;;;;;;;19.29;60.60;100720.55;105344;1260;73923;-61
2023/04/16 11:44:22;;;;;;;;;;;;;;;19.21;60.63;100721.08;105442;1258;83533;-62
2023/04/16 11:46:52;;;;;;;4.70;3.50;;;;;;;18.99;60.22;100722.55;105427;1258;73714;-65
2023/04/16 11:49:29;;;;;;;4.10;3.50;;;;;;;18.75;60.13;100721.81;105388;1257;69141;-62
2023/04/16 11:51:58;;;;;;;4.70;3.90;;;;;;;18.48;60.07;100721.65;105375;1258;69191;-61
2023/04/16 11:54:33;;;;;;;5.10;4.00;;;;;;;18.32;60.07;100719.50;105395;1258;74924;-62
2023/04/16 11:57:03;;;;;;;5.30;4.60;;;;;;;18.50;60.37;100714.95;105364;1255;82602;-61
2023/04/16 11:59:32;;;;;;;5.00;4.20;;;;;;;18.94;60.58;100716.14;105343;1259;73504;-63
2023/04/16 12:02:00;;;;;;;6.60;4.70;;;;;;;19.31;60.10;100715.46;105419;1254;69092;-62
2023/04/16 12:04:29;;;;;;;5.30;4.10;;;;;;;19.63;59.98;100714.84;105390;1267;69331;-64
2023/04/16 12:07:11;;;;;;;4.40;4.00;;;;;;;19.83;59.15;100714.88;105170;1259;75032;-62
2023/04/16 12:09:41;;;;;;;9.00;3.90;;;;;;;20.09;58.46;100709.61;105423;1260;83665;-63
2023/04/16 12:12:26;;;;;;;4.80;3.90;;;;;;;20.23;57.31;100707.70;105402;1258;73687;-62
2023/04/16 12:14:56;;;;;;;4.80;4.00;;;;;;;20.04;56.61;100710.48;105393;1256;69102;-61
2023/04/16 12:17:24;;;;;;;4.80;3.90;;;;;;;19.95;56.55;100712.41;105724;1257;69096;-63
2023/04/16 12:19:57;;;;;;;4.80;3.60;;;;;;;19.98;56.73;100706.66;105449;1254;74921;-62
2023/04/16 12:22:30;;;;;;;4.10;3.40;;;;;;;20.11;57.19;100705.39;105418;1258;83491;-65
2023/04/16 12:24:58;;;;;;;4.90;3.70;;;;;;;20.44;57.26;100708.82;105559;1258;72733;-63
2023/04/16 12:27:45;;;;;;;4.50;4.00;;;;;;;20.79;56.55;100708.45;105214;1262;69229;-64
2023/04/16 12:30:14;;;;;;;5.50;4.00;;;;;;;20.93;55.41;100708.94;105579;1254;69208;-65
2023/04/16 12:32:45;;;;;;;4.80;3.90;;;;;;;20.97;55.48;100710.85;105401;1255;75089;-63
2023/04/16 12:35:13;;;;;;;5.60;3.80;;;;;;;21.04;55.22;100709.20;105399;1255;82518;-65
2023/04/16 12:37:41;;;;;;;4.90;4.10;;;;;;;21.45;55.38;100710.31;105186;1260;72955;-63
2023/04/16 12:40:10;;;;;;;6.30;3.90;;;;;;;21.43;53.74;100705.34;105334;1254;69090;-65
2023/04/16 12:42:38;;;;;;;5.60;4.00;;;;;;;20.90;53.41;100703.16;105417;1257;69026;-64
2023/04/16 12:45:07;;;;;;;5.00;4.10;;;;;;;20.91;53.70;100700.26;105350;1258;73956;-63
2023/04/16 12:47:35;;;;;;;5.30;4.00;;;;;;;20.69;52.91;100699.59;105321;1257;83935;-62
2023/04/16 12:50:04;;;;;;;4.90;3.30;;;;;;;20.26;53.03;100699.92;105267;1257;73188;-66
2023/04/16 12:52:33;;;;;;;6.40;4.50;;;;;;;19.92;53.38;100698.77;105402;1254;69494;-60
2023/04/16 12:55:02;;;;;;;5.20;4.30;;;;;;;19.63;53.38;100700.48;105387;1255;69545;-66
2023/04/16 12:57:30;;;;;;;5.90;5.00;;;;;;;19.28;53.70;100705.91;105405;1255;74790;-61
2023/04/16 12:59:58;;;;;;;6.30;5.00;;;;;;;18.95;53.85;100705.45;105336;1254;82650;-67
2023/04/16 13:02:27;;;;;;;4.60;4.20;;;;;;;18.69;54.25;100704.48;105362;1260;73519;-64
2023/04/16 13:04:56;;;;;;;6.30;5.50;;;;;;;18.46;54.39;100702.84;105422;1259;69120;-62
2023/04/16 13:07:25;;;;;;;7.10;6.00;;;;;;;18.22;54.91;100706.69;105364;1254;69131;-63
2023/04/16 13:09:54;;;;;;;6.40;5.20;;;;;;;18.04;54.99;100707.30;105625;1257;74898;-62
2023/04/16 13:12:22;;;;;;;10.60;9.10;;;;;;;17.85;54.77;100710.98;105253;1255;83946;-62
2023/04/16 13:14:58;;;;;;;4.80;3.80;;;;;;;17.71;54.99;100711.63;105293;1254;72744;-62
2023/04/16 13:17:26;;;;;;;5.00;3.70;;;;;;;17.61;55.05;100712.40;105360;1255;69090;-64
2023/04/16 13:19:55;;;;;;;4.90;3.90;;;;;;;17.58;55.10;100715.60;105381;1260;69129;-64
2023/04/16 13:22:27;;;;;;;4.50;3.40;;;;;;;17.49;54.99;100716.16;105322;1257;73882;-62
2023/04/16 13:24:55;;;;;;;4.10;3.60;;;;;;;17.38;54.92;100713.80;105349;1257;83492;-61
2023/04/16 13:27:27;;;;;;;8.20;4.60;;;;;;;17.28;55.05;100715.65;105329;1254;72695;-63
2023/04/16 13:29:58;;;;;;;6.80;5.00;;;;;;;17.22;55.22;100715.52;105310;1259;69125;-62
2023/04/16 13:32:29;;;;;;;6.90;4.60;;;;;;;17.18;55.85;100718.91;105152;1257;69221;-61
2023/04/16 13:35:07;;;;;;;7.40;5.90;;;;;;;17.11;55.54;100716.65;105243;1256;74921;-64
2023/04/16 13:37:46;;;;;;;15.00;11.90;;;;;;;17.02;55.69;100715.44;105318;1257;83311;-64
2023/04/16 13:40:15;;;;;;;11.30;9.20;;;;;;;16.96;55.71;100716.00;105442;1257;73675;-63
2023/04/16 13:42:48;;;;;;;6.40;4.40;;;;;;;16.92;55.72;100719.18;105091;1260;69217;-61
2023/04/16 13:45:19;;;;;;;23.80;17.20;;;;;;;16.89;55.48;100714.44;105341;1254;69273;-63
2023/04/16 13:47:50;;;;;;;9.30;7.30;;;;;;;16.92;55.54;100717.07;105000;1254;316939;-64
2023/04/16 13:50:19;;;;;;;14.60;10.20;;;;;;;17.04;55.34;100711.81;105222;1254;83498;-61
2023/04/16 13:52:48;;;;;;;4.90;4.20;;;;;;;17.10;55.16;100713.58;105221;1254;73789;-62
2023/04/16 13:55:18;;;;;;;15.90;10.50;;;;;;;17.10;55.01;100714.93;105221;1254;69654;-62
2023/04/16 13:57:46;;;;;;;;;;;;;;;17.17;55.05;100716.65;105358;1254;69122;-62
2023/04/16 14:00:16;;;;;;;5.40;4.60;;;;;;;17.25;54.75;100718.66;105254;1254;74942;-62
2023/04/16 14:02:47;;;;;;;7.70;5.40;;;;;;;17.28;54.73;100719.71;105462;1258;83442;-64
2023/04/16 14:05:18;;;;;;;4.80;4.00;;;;;;;17.27;54.64;100716.41;105327;1258;72887;-62
2023/04/16 14:07:49;;;;;;;6.00;4.90;;;;;;;17.34;54.45;100715.11;105256;1257;69291;-61
2023/04/16 14:10:18;;;;;;;5.40;4.40;;;;;;;17.67;55.07;100720.53;105222;1255;69272;-60
2023/04/16 14:12:46;;;;;;;12.40;10.10;;;;;;;18.39;55.36;100712.48;105251;1255;74812;-64
2023/04/16 14:15:14;;;;;;;6.80;5.30;;;;;;;19.30;55.35;100711.63;105152;1254;83802;-62
2023/04/16 14:17:43;;;;;;;4.40;3.80;;;;;;;20.21;54.57;100707.52;105199;1254;72876;-62
2023/04/16 14:20:12;;;;;;;10.30;9.10;;;;;;;21.11;53.97;100705.32;105530;1254;69493;-62
2023/04/16 14:22:42;;;;;;;7.10;6.40;;;;;;;21.92;53.08;100705.54;105239;1254;69406;-63
2023/04/16 14:25:11;;;;;;;7.00;5.50;;;;;;;22.62;52.07;100699.96;105317;1257;74132;-62
2023/04/16 14:27:40;;;;;;;9.00;7.90;;;;;;;23.10;50.74;100701.61;105327;1257;83736;-62
2023/04/16 14:30:08;;;;;;;7.80;5.40;;;;;;;23.43;50.24;100702.20;105428;1255;73971;-65
2023/04/16 14:32:37;;;;;;;9.20;8.10;;;;;;;23.73;49.57;100697.85;105321;1254;69170;-65
2023/04/16 14:35:07;;;;;;;5.70;5.10;;;;;;;23.85;49.00;100699.11;105061;1254;69092;-63
2023/04/16 14:37:35;;;;;;;5.60;4.70;;;;;;;23.67;48.07;100702.81;105249;1257;75103;-65
2023/04/16 14:40:07;;;;;;;7.70;5.60;;;;;;;23.23;47.24;100706.45;105324;1254;82539;-63